Time;durP1;ratioP1;P1;durP2;ratioP2;P2;SDS_P1;SDS_P2;PMS_P1;PMS_P2;Temp;Humidity;BMP_temperature;BMP_pressure;BME280_temperature;BME280_humidity;BME280_pressure;Samples;Min_cycle;Max_cycle;Signal;HPM_P1;HPM_P2
2021/08/10 00:03:18;;;;;;;;;26.50;22.25;;;;;;;;8749029;40;10845;-64
2021/08/10 00:09:21;;;;;;;;;24.75;23.25;;;;;;;;8749670;40;11636;-65
2021/08/10 00:15:24;;;;;;;;;22.25;22.25;;;;;;;;8730711;40;10561;-65
2021/08/10 00:21:26;;;;;;;;;25.00;23.67;;;;;;;;8751250;40;10677;-65
2021/08/10 00:27:29;;;;;;;;;23.25;21.75;;;;;;;;8752613;40;10741;-64
2021/08/10 00:33:31;;;;;;;;;21.75;19.50;;;;;;;;8737348;40;10719;-64
2021/08/10 00:39:34;;;;;;;;;15.50;15.50;;;;;;;;8750258;40;10967;-64
2021/08/10 00:45:37;;;;;;;;;20.75;20.00;;;;;;;;8741030;40;10747;-64
2021/08/10 00:51:40;;;;;;;;;19.25;18.00;;;;;;;;8741464;40;10694;-65
2021/08/10 00:57:46;;;;;;;;;22.25;20.25;;;;;;;;8749232;40;10839;-64
2021/08/10 01:03:49;;;;;;;;;20.50;18.25;;;;;;;;8740968;40;10527;-64
2021/08/10 01:10:13;;;;;;;;;17.75;17.00;;;;;;;;8724715;40;10667;-64
2021/08/10 01:16:21;;;;;;;;;15.00;14.00;;;;;;;;8740004;40;10828;-64
2021/08/10 01:22:27;;;;;;;;;20.25;18.50;;;;;;;;8740723;40;11275;-64
2021/08/10 01:29:00;;;;;;;;;19.00;19.00;;;;;;;;8739308;40;10622;-64
2021/08/10 01:35:05;;;;;;;;;17.00;16.75;;;;;;;;8740231;40;10719;-64
2021/08/10 01:41:12;;;;;;;;;21.75;18.25;;;;;;;;8739060;40;11403;-65
2021/08/10 01:47:15;;;;;;;;;19.50;18.25;;;;;;;;8740598;40;11007;-65
2021/08/10 01:53:18;;;;;;;;;15.25;13.75;;;;;;;;8739321;40;10866;-65
2021/08/10 01:59:23;;;;;;;;;18.25;15.75;;;;;;;;8738818;40;11321;-65
2021/08/10 02:05:26;;;;;;;;;19.00;19.00;;;;;;;;8732091;40;11369;-65
2021/08/10 02:11:34;;;;;;;;;18.75;18.50;;;;;;;;8748160;40;12183;-65
2021/08/10 02:17:42;;;;;;;;;17.75;17.50;;;;;;;;8740182;40;10752;-65
2021/08/10 02:24:07;;;;;;;;;17.00;16.75;;;;;;;;8738529;40;11399;-65
2021/08/10 02:30:15;;;;;;;;;16.75;16.75;;;;;;;;8739090;40;10830;-65
2021/08/10 02:36:19;;;;;;;;;16.75;15.50;;;;;;;;8739063;40;10932;-65
2021/08/10 02:42:24;;;;;;;;;17.00;17.00;;;;;;;;8747456;40;10530;-65
2021/08/10 02:48:33;;;;;;;;;15.00;13.50;;;;;;;;8740070;40;10528;-64
2021/08/10 02:54:39;;;;;;;;;23.25;16.25;;;;;;;;8738413;40;10937;-65
2021/08/10 03:00:46;;;;;;;;;19.00;17.25;;;;;;;;8739692;40;10733;-65
2021/08/10 03:06:54;;;;;;;;;15.00;15.00;;;;;;;;8739325;40;10258;-66
2021/08/10 03:12:57;;;;;;;;;18.00;17.33;;;;;;;;8747446;40;10553;-65
2021/08/10 03:19:04;;;;;;;;;17.25;14.00;;;;;;;;8738458;40;11369;-65
2021/08/10 03:25:08;;;;;;;;;17.50;16.25;;;;;;;;8737783;40;10948;-64
2021/08/10 03:31:13;;;;;;;;;13.25;13.25;;;;;;;;8739105;40;10714;-64
2021/08/10 03:37:17;;;;;;;;;16.75;15.75;;;;;;;;8729112;40;11100;-65
2021/08/10 03:43:21;;;;;;;;;12.50;12.50;;;;;;;;8737872;40;11375;-64
2021/08/10 03:49:25;;;;;;;;;13.00;13.00;;;;;;;;8738050;40;10765;-64
2021/08/10 03:55:28;;;;;;;;;17.00;17.00;;;;;;;;8737994;40;11424;-64
2021/08/10 04:08:25;;;;;;;;;15.50;15.00;;;;;;;;8645141;41;10961;-60
2021/08/10 04:14:27;;;;;;;;;13.25;13.00;;;;;;;;8642784;41;10959;-61
2021/08/10 04:20:29;;;;;;;;;17.00;16.75;;;;;;;;8639638;41;11012;-61
2021/08/10 04:26:33;;;;;;;;;16.50;15.75;;;;;;;;8657156;41;11111;-60
2021/08/10 04:32:36;;;;;;;;;16.75;16.75;;;;;;;;8658131;41;11638;-61
2021/08/10 04:38:39;;;;;;;;;14.75;14.75;;;;;;;;8656893;41;11011;-60
2021/08/10 04:44:41;;;;;;;;;16.50;16.50;;;;;;;;8633247;41;11054;-62
2021/08/10 04:50:44;;;;;;;;;16.50;15.75;;;;;;;;8641939;41;11007;-61
2021/08/10 04:56:51;;;;;;;;;14.75;14.75;;;;;;;;8633312;41;11006;-60
2021/08/10 05:02:54;;;;;;;;;17.00;15.50;;;;;;;;8641977;41;10830;-61
2021/08/10 05:08:59;;;;;;;;;18.25;18.25;;;;;;;;8633835;41;11146;-61
2021/08/10 05:15:01;;;;;;;;;17.25;15.00;;;;;;;;8649721;41;10726;-62
2021/08/10 05:21:05;;;;;;;;;19.00;18.00;;;;;;;;8649176;41;11440;-61
2021/08/10 05:27:08;;;;;;;;;13.00;13.00;;;;;;;;8663665;41;11649;-59
2021/08/10 05:33:12;;;;;;;;;15.25;15.25;;;;;;;;8664224;41;10737;-59
2021/08/10 05:39:15;;;;;;;;;12.75;10.25;;;;;;;;8664000;41;10706;-60
2021/08/10 05:45:17;;;;;;;;;15.00;15.00;;;;;;;;8663560;41;10804;-59
2021/08/10 05:51:19;;;;;;;;;19.50;17.00;;;;;;;;8657132;41;10699;-60
2021/08/10 05:57:23;;;;;;;;;12.25;12.25;;;;;;;;8653440;41;10828;-60
2021/08/10 06:03:28;;;;;;;;;15.75;15.00;;;;;;;;8658669;41;10614;-59
2021/08/10 06:09:33;;;;;;;;;18.00;17.00;;;;;;;;8654465;41;11318;-60
2021/08/10 06:15:38;;;;;;;;;15.75;15.00;;;;;;;;8647384;41;10729;-60
2021/08/10 06:21:42;;;;;;;;;19.00;17.50;;;;;;;;8665140;41;10719;-61
2021/08/10 06:27:46;;;;;;;;;14.25;13.00;;;;;;;;8652502;41;10677;-60
2021/08/10 06:33:54;;;;;;;;;19.00;16.75;;;;;;;;8636128;41;10554;-59
2021/08/10 06:40:01;;;;;;;;;17.50;16.50;;;;;;;;8655824;41;10605;-60
2021/08/10 06:46:03;;;;;;;;;19.50;18.00;;;;;;;;8654807;41;10901;-60
2021/08/10 06:52:08;;;;;;;;;16.00;14.25;;;;;;;;8658921;41;10801;-60
2021/08/10 06:58:13;;;;;;;;;15.50;15.50;;;;;;;;8649007;41;10651;-61
2021/08/10 07:04:15;;;;;;;;;17.00;15.50;;;;;;;;8653453;41;10886;-60
2021/08/10 07:10:18;;;;;;;;;18.50;17.25;;;;;;;;8657582;41;10603;-59
2021/08/10 07:16:22;;;;;;;;;19.75;19.00;;;;;;;;8653405;41;10576;-60
2021/08/10 07:22:27;;;;;;;;;13.00;11.00;;;;;;;;8662043;41;10760;-61
2021/08/10 07:28:41;;;;;;;;;18.25;17.25;;;;;;;;8659332;41;10639;-60
2021/08/10 07:34:45;;;;;;;;;16.25;16.25;;;;;;;;8633259;41;10592;-60
2021/08/10 07:40:54;;;;;;;;;27.00;27.00;;;;;;;;8654594;41;10866;-60
2021/08/10 07:46:56;;;;;;;;;23.75;19.50;;;;;;;;8655541;41;10794;-61
2021/08/10 07:52:58;;;;;;;;;16.25;16.00;;;;;;;;8642917;41;10572;-60
2021/08/10 07:59:01;;;;;;;;;15.00;15.00;;;;;;;;8654918;41;10617;-60
2021/08/10 08:05:04;;;;;;;;;14.75;14.75;;;;;;;;8656172;41;10607;-61
2021/08/10 08:11:08;;;;;;;;;16.50;16.50;;;;;;;;8656986;41;11430;-61
2021/08/10 08:17:12;;;;;;;;;18.25;16.00;;;;;;;;8655412;41;11214;-61
2021/08/10 08:23:16;;;;;;;;;22.50;18.00;;;;;;;;8658836;41;10505;-60
2021/08/10 08:29:20;;;;;;;;;15.75;15.75;;;;;;;;8651377;41;10746;-61
2021/08/10 08:35:22;;;;;;;;;18.25;18.25;;;;;;;;8648048;41;10673;-60
2021/08/10 08:41:26;;;;;;;;;19.50;18.00;;;;;;;;8639129;41;11304;-61
2021/08/10 08:47:29;;;;;;;;;20.50;19.50;;;;;;;;8657673;41;11084;-61
2021/08/10 08:53:34;;;;;;;;;16.50;15.75;;;;;;;;8650260;41;10605;-60
2021/08/10 08:59:42;;;;;;;;;20.50;19.50;;;;;;;;8647999;41;10624;-62
2021/08/10 09:05:47;;;;;;;;;14.50;14.50;;;;;;;;8649673;41;10678;-60
2021/08/10 09:11:53;;;;;;;;;19.25;18.50;;;;;;;;8656909;41;11283;-60
2021/08/10 09:18:08;;;;;;;;;19.50;17.50;;;;;;;;8648044;41;10786;-61
2021/08/10 09:24:12;;;;;;;;;20.75;20.00;;;;;;;;8659536;41;10698;-62
2021/08/10 09:30:26;;;;;;;;;23.00;21.25;;;;;;;;8661125;41;10836;-63
2021/08/10 09:36:29;;;;;;;;;19.00;18.25;;;;;;;;8661134;41;10656;-61
2021/08/10 09:42:32;;;;;;;;;16.75;16.75;;;;;;;;8654780;41;10698;-61
2021/08/10 09:48:36;;;;;;;;;19.25;19.00;;;;;;;;8648258;41;10636;-61
2021/08/10 09:54:39;;;;;;;;;22.75;18.50;;;;;;;;8652800;41;10748;-61
2021/08/10 10:00:42;;;;;;;;;19.25;19.25;;;;;;;;8656153;41;10745;-61
2021/08/10 10:06:48;;;;;;;;;14.00;13.25;;;;;;;;8619896;41;1235174;-60
2021/08/10 10:12:51;;;;;;;;;30.25;28.75;;;;;;;;8656483;41;14092;-61
2021/08/10 10:18:54;;;;;;;;;23.00;19.25;;;;;;;;8647183;41;10663;-60
2021/08/10 10:25:00;;;;;;;;;15.00;15.00;;;;;;;;8648281;41;10637;-60
2021/08/10 10:31:03;;;;;;;;;18.00;18.00;;;;;;;;8650939;41;10533;-60
2021/08/10 10:37:07;;;;;;;;;18.50;18.50;;;;;;;;8647483;41;10676;-60
2021/08/10 10:43:11;;;;;;;;;19.50;19.00;;;;;;;;8651061;41;10606;-59
2021/08/10 10:49:29;;;;;;;;;19.50;19.50;;;;;;;;8656250;41;11461;-60
2021/08/10 10:55:38;;;;;;;;;21.00;19.75;;;;;;;;8648380;41;10621;-59
2021/08/10 11:01:40;;;;;;;;;19.50;17.75;;;;;;;;8656211;41;11429;-61
2021/08/10 11:07:50;;;;;;;;;18.25;18.25;;;;;;;;8649398;41;10651;-61
2021/08/10 11:13:52;;;;;;;;;17.75;17.75;;;;;;;;8647372;41;10768;-60
2021/08/10 11:19:55;;;;;;;;;16.25;16.25;;;;;;;;8653901;41;10655;-61
2021/08/10 11:26:05;;;;;;;;;19.25;19.25;;;;;;;;8650076;41;10657;-61
2021/08/10 11:32:37;;;;;;;;;17.25;16.75;;;;;;;;8652264;41;11916;-59
2021/08/10 11:39:02;;;;;;;;;20.75;20.75;;;;;;;;8655526;41;10669;-60
2021/08/10 11:45:05;;;;;;;;;24.00;23.00;;;;;;;;8632960;41;10671;-60
2021/08/10 11:51:39;;;;;;;;;21.50;20.00;;;;;;;;8641725;41;10712;-60
2021/08/10 11:57:52;;;;;;;;;21.75;21.00;;;;;;;;8642216;41;10590;-61
2021/08/10 12:04:08;;;;;;;;;23.00;22.25;;;;;;;;8651295;41;11250;-60
2021/08/10 12:10:10;;;;;;;;;19.00;18.50;;;;;;;;8651622;41;10877;-60
2021/08/10 12:16:12;;;;;;;;;18.25;18.00;;;;;;;;8649338;41;10644;-61
2021/08/10 12:22:27;;;;;;;;;22.50;22.00;;;;;;;;8655035;41;10730;-60
2021/08/10 12:28:30;;;;;;;;;19.75;17.00;;;;;;;;8655115;41;10722;-61
2021/08/10 12:34:42;;;;;;;;;17.75;16.75;;;;;;;;8654350;41;10872;-61
2021/08/10 12:40:46;;;;;;;;;18.75;18.75;;;;;;;;8657106;41;10616;-61
2021/08/10 12:46:54;;;;;;;;;19.25;18.00;;;;;;;;8648066;41;10760;-61
2021/08/10 12:52:59;;;;;;;;;13.00;13.00;;;;;;;;8654144;41;10846;-61
2021/08/10 12:59:01;;;;;;;;;20.50;18.00;;;;;;;;8652152;41;10783;-59
2021/08/10 13:05:15;;;;;;;;;19.25;19.25;;;;;;;;8636031;41;11049;-61
2021/08/10 13:11:22;;;;;;;;;18.75;17.75;;;;;;;;8652948;41;10814;-60
2021/08/10 13:17:31;;;;;;;;;0.00;0.00;;;;;;;;8650174;41;10521;-61
2021/08/10 13:23:39;;;;;;;;;17.00;17.00;;;;;;;;8655477;41;10852;-60
2021/08/10 13:29:41;;;;;;;;;18.50;17.25;;;;;;;;8654928;41;10600;-59
2021/08/10 13:35:43;;;;;;;;;19.00;19.00;;;;;;;;8654457;41;10570;-60
2021/08/10 13:41:46;;;;;;;;;21.75;21.50;;;;;;;;8654098;41;11548;-59
2021/08/10 13:47:50;;;;;;;;;27.75;23.75;;;;;;;;8652908;41;10888;-61
2021/08/10 13:53:54;;;;;;;;;22.00;20.75;;;;;;;;8664546;41;10849;-60
2021/08/10 13:59:56;;;;;;;;;20.25;20.25;;;;;;;;8676685;41;10631;-59
2021/08/10 14:05:58;;;;;;;;;17.00;15.50;;;;;;;;8677820;41;10861;-59
2021/08/10 14:12:00;;;;;;;;;20.00;18.00;;;;;;;;8673848;41;10773;-60
2021/08/10 14:18:02;;;;;;;;;17.75;17.75;;;;;;;;8656800;41;11478;-61
2021/08/10 14:24:04;;;;;;;;;20.75;17.75;;;;;;;;8660009;41;10867;-61
2021/08/10 14:30:07;;;;;;;;;18.50;17.50;;;;;;;;8657500;41;10752;-61
2021/08/10 14:36:09;;;;;;;;;18.00;16.00;;;;;;;;8678345;41;10615;-61
2021/08/10 14:42:11;;;;;;;;;21.50;20.75;;;;;;;;8679511;41;10752;-61
2021/08/10 14:48:13;;;;;;;;;15.50;15.50;;;;;;;;8678660;41;11315;-60
2021/08/10 14:54:15;;;;;;;;;15.00;13.25;;;;;;;;8673681;41;11385;-61
2021/08/10 15:00:17;;;;;;;;;16.50;16.25;;;;;;;;8680929;41;11376;-60
2021/08/10 15:06:20;;;;;;;;;19.00;18.50;;;;;;;;1571381;41;10010998;-61
2021/08/10 15:12:22;;;;;;;;;18.75;18.25;;;;;;;;8670844;41;10615;-63
2021/08/10 15:18:25;;;;;;;;;22.00;21.25;;;;;;;;8675697;41;10628;-61
2021/08/10 15:24:29;;;;;;;;;19.00;17.50;;;;;;;;8676688;41;11747;-61
2021/08/10 15:30:31;;;;;;;;;19.75;18.50;;;;;;;;8677474;41;10606;-61
2021/08/10 15:36:35;;;;;;;;;15.75;14.25;;;;;;;;8666416;41;10841;-59
2021/08/10 15:42:38;;;;;;;;;17.25;15.75;;;;;;;;8667919;41;10868;-62
2021/08/10 15:48:40;;;;;;;;;16.75;16.00;;;;;;;;8674037;41;11433;-62
2021/08/10 15:54:43;;;;;;;;;14.25;14.25;;;;;;;;8673454;41;10933;-61
2021/08/10 16:00:45;;;;;;;;;20.25;20.25;;;;;;;;8675394;41;10856;-61
2021/08/10 16:06:47;;;;;;;;;11.75;11.00;;;;;;;;8659444;41;10617;-61
2021/08/10 16:12:49;;;;;;;;;18.50;18.00;;;;;;;;8652473;41;10722;-62
2021/08/10 16:18:52;;;;;;;;;19.75;19.75;;;;;;;;8652468;41;10683;-61
2021/08/10 16:24:56;;;;;;;;;20.50;20.50;;;;;;;;8653970;41;10671;-61
2021/08/10 16:31:00;;;;;;;;;14.00;14.00;;;;;;;;8653802;41;10632;-62
2021/08/10 16:37:04;;;;;;;;;17.75;16.75;;;;;;;;8652372;41;10672;-62
2021/08/10 16:43:06;;;;;;;;;20.00;16.75;;;;;;;;8652261;41;10596;-61
2021/08/10 16:49:08;;;;;;;;;16.25;16.25;;;;;;;;8651855;41;10631;-61
2021/08/10 16:55:11;;;;;;;;;18.25;17.00;;;;;;;;8652720;41;10651;-63
2021/08/10 17:01:14;;;;;;;;;18.75;18.00;;;;;;;;8652516;41;10783;-61
2021/08/10 17:07:17;;;;;;;;;21.50;18.50;;;;;;;;8655162;41;11752;-62
2021/08/10 17:13:19;;;;;;;;;16.25;16.25;;;;;;;;8655746;41;10773;-62
2021/08/10 17:19:22;;;;;;;;;23.00;21.50;;;;;;;;8655058;41;11250;-61
2021/08/10 17:25:25;;;;;;;;;25.25;25.25;;;;;;;;8656335;41;10699;-62
2021/08/10 17:31:27;;;;;;;;;20.25;20.00;;;;;;;;8655401;41;10616;-62
2021/08/10 17:37:29;;;;;;;;;23.00;22.00;;;;;;;;8654819;41;10616;-62
2021/08/10 17:43:31;;;;;;;;;21.50;21.50;;;;;;;;8654870;41;10847;-62
2021/08/10 17:49:33;;;;;;;;;17.50;17.50;;;;;;;;8654866;41;10737;-61
2021/08/10 17:55:37;;;;;;;;;20.25;18.50;;;;;;;;8653313;41;10749;-62
2021/08/10 18:01:39;;;;;;;;;20.75;18.50;;;;;;;;8654388;41;10715;-62
2021/08/10 18:07:42;;;;;;;;;26.25;24.25;;;;;;;;8654448;41;10708;-63
2021/08/10 18:13:44;;;;;;;;;22.25;21.75;;;;;;;;8655066;41;10736;-61
2021/08/10 18:19:46;;;;;;;;;26.25;24.75;;;;;;;;8654138;41;10725;-61
2021/08/10 18:25:49;;;;;;;;;24.25;22.00;;;;;;;;8654195;41;10636;-61
2021/08/10 18:31:52;;;;;;;;;23.75;22.00;;;;;;;;8654566;41;10790;-64
2021/08/10 18:37:54;;;;;;;;;26.25;22.75;;;;;;;;8653602;41;10960;-61
2021/08/10 18:44:00;;;;;;;;;24.00;24.00;;;;;;;;8654208;41;10993;-62
2021/08/10 18:50:04;;;;;;;;;27.50;26.00;;;;;;;;8653947;41;11044;-61
2021/08/10 18:56:06;;;;;;;;;28.50;27.00;;;;;;;;8653748;41;10884;-61
2021/08/10 19:02:08;;;;;;;;;27.75;26.00;;;;;;;;8653840;41;11007;-62
2021/08/10 19:08:12;;;;;;;;;32.00;31.50;;;;;;;;8654689;41;11070;-62
2021/08/10 19:14:14;;;;;;;;;33.00;31.75;;;;;;;;8654250;41;11152;-61
2021/08/10 19:20:16;;;;;;;;;29.25;27.25;;;;;;;;8653284;41;10842;-61
2021/08/10 19:26:20;;;;;;;;;29.00;27.75;;;;;;;;8653082;41;11082;-62
2021/08/10 19:32:22;;;;;;;;;33.75;31.75;;;;;;;;8653405;41;10746;-62
2021/08/10 19:38:24;;;;;;;;;30.00;28.50;;;;;;;;8652973;41;11170;-62
2021/08/10 19:44:27;;;;;;;;;34.50;33.25;;;;;;;;8654017;41;10797;-62
2021/08/10 19:50:29;;;;;;;;;31.25;29.75;;;;;;;;8653071;41;10782;-61
2021/08/10 19:56:32;;;;;;;;;35.50;29.25;;;;;;;;8651895;41;11113;-61
2021/08/10 20:02:34;;;;;;;;;25.25;25.25;;;;;;;;8652952;41;11711;-62
2021/08/10 20:08:36;;;;;;;;;27.50;24.50;;;;;;;;8653540;41;10783;-61
2021/08/10 20:14:39;;;;;;;;;30.50;30.50;;;;;;;;8653044;41;10985;-61
2021/08/10 20:20:42;;;;;;;;;31.75;29.00;;;;;;;;8653064;41;10832;-61
2021/08/10 20:26:45;;;;;;;;;26.75;25.75;;;;;;;;8653313;41;10703;-62
2021/08/10 20:32:47;;;;;;;;;31.00;27.25;;;;;;;;8652330;41;11063;-61
2021/08/10 20:38:49;;;;;;;;;24.75;23.75;;;;;;;;8653684;41;10878;-61
2021/08/10 20:44:51;;;;;;;;;23.00;21.25;;;;;;;;8656085;41;10957;-62
2021/08/10 20:50:53;;;;;;;;;26.75;25.50;;;;;;;;8656221;41;10924;-62
2021/08/10 20:56:55;;;;;;;;;24.00;23.75;;;;;;;;8656630;41;10715;-62
2021/08/10 21:02:57;;;;;;;;;25.75;25.50;;;;;;;;8655480;41;10785;-61
2021/08/10 21:09:00;;;;;;;;;23.00;21.50;;;;;;;;8656026;41;10930;-62
2021/08/10 21:15:03;;;;;;;;;26.00;24.50;;;;;;;;8657213;41;11023;-62
2021/08/10 21:21:06;;;;;;;;;28.50;23.25;;;;;;;;8655570;41;10946;-62
2021/08/10 21:27:08;;;;;;;;;23.25;23.00;;;;;;;;8655020;41;11019;-61
2021/08/10 21:33:10;;;;;;;;;24.50;24.50;;;;;;;;8655428;41;11008;-61
2021/08/10 21:39:12;;;;;;;;;27.50;24.25;;;;;;;;8654467;41;11835;-63
2021/08/10 21:45:16;;;;;;;;;25.25;23.75;;;;;;;;8656197;41;11000;-61
2021/08/10 21:51:18;;;;;;;;;23.50;20.25;;;;;;;;8654777;41;11495;-61
2021/08/10 21:57:20;;;;;;;;;30.75;27.00;;;;;;;;8655599;41;11005;-61
2021/08/10 22:03:25;;;;;;;;;26.75;26.00;;;;;;;;8654916;41;11075;-64
2021/08/10 22:09:27;;;;;;;;;24.75;22.00;;;;;;;;8654527;41;11107;-62
2021/08/10 22:15:29;;;;;;;;;27.00;25.50;;;;;;;;8655154;41;11526;-61
2021/08/10 22:21:33;;;;;;;;;20.25;20.25;;;;;;;;8653746;41;11439;-62
2021/08/10 22:27:35;;;;;;;;;22.50;22.50;;;;;;;;8655050;41;10936;-62
2021/08/10 22:33:38;;;;;;;;;26.75;24.50;;;;;;;;8654233;41;11241;-62
2021/08/10 22:39:41;;;;;;;;;25.50;25.50;;;;;;;;8653541;41;10902;-62
2021/08/10 22:45:43;;;;;;;;;25.50;21.25;;;;;;;;8654850;41;11145;-61
2021/08/10 22:51:45;;;;;;;;;27.75;25.00;;;;;;;;8654770;41;11050;-63
2021/08/10 22:57:48;;;;;;;;;23.75;23.00;;;;;;;;8655168;41;10962;-61
2021/08/10 23:03:51;;;;;;;;;27.50;23.00;;;;;;;;8653424;41;11716;-63
2021/08/10 23:09:53;;;;;;;;;26.25;26.25;;;;;;;;8653373;41;11248;-61
2021/08/10 23:15:55;;;;;;;;;30.25;25.25;;;;;;;;8653730;41;11727;-62
2021/08/10 23:21:58;;;;;;;;;27.25;26.00;;;;;;;;8653530;41;10958;-62
2021/08/10 23:28:00;;;;;;;;;26.25;26.00;;;;;;;;8653670;41;10959;-61
2021/08/10 23:34:04;;;;;;;;;19.75;18.00;;;;;;;;8654081;41;11235;-61
2021/08/10 23:40:07;;;;;;;;;22.00;21.50;;;;;;;;8653863;41;11001;-61
2021/08/10 23:46:09;;;;;;;;;26.00;22.50;;;;;;;;8653390;41;11762;-60
2021/08/10 23:52:11;;;;;;;;;19.75;19.75;;;;;;;;8652988;41;11107;-61
2021/08/10 23:58:13;;;;;;;;;23.50;22.50;;;;;;;;8652920;41;11143;-61
